createdAt,value
2022-10-21T00:01:00.574Z,8.30
2022-10-21T00:03:29.075Z,8.30
2022-10-21T00:05:57.268Z,8.30
2022-10-21T00:08:26.565Z,8.30
2022-10-21T00:10:55.535Z,8.30
2022-10-21T00:13:23.871Z,8.30
2022-10-21T00:16:02.491Z,8.30
2022-10-21T00:18:31.419Z,8.30
2022-10-21T00:20:59.822Z,8.30
2022-10-21T00:23:29.330Z,8.30
2022-10-21T00:25:58.613Z,8.30
2022-10-21T00:28:27.397Z,8.30
2022-10-21T00:30:57.952Z,8.30
2022-10-21T00:33:27.762Z,8.30
2022-10-21T00:35:58.505Z,8.30
2022-10-21T00:38:28.349Z,8.30
2022-10-21T00:40:56.460Z,8.30
2022-10-21T00:43:24.492Z,8.30
2022-10-21T00:45:56.848Z,8.30
2022-10-21T00:48:32.966Z,8.40
2022-10-21T00:51:05.246Z,8.30
2022-10-21T00:53:36.585Z,8.40
2022-10-21T00:56:14.166Z,8.30
2022-10-21T00:58:46.873Z,8.40
2022-10-21T01:01:17.964Z,8.40
2022-10-21T01:03:48.900Z,8.40
2022-10-21T01:06:17.916Z,8.40
2022-10-21T01:08:47.506Z,8.40
2022-10-21T01:11:18.332Z,8.40
2022-10-21T01:13:59.801Z,8.40
2022-10-21T01:16:36.521Z,8.40
2022-10-21T01:19:13.967Z,8.40
2022-10-21T01:21:45.238Z,8.40
2022-10-21T01:24:53.235Z,8.40
2022-10-21T01:27:27.366Z,8.40
2022-10-21T01:30:17.457Z,8.40
2022-10-21T01:35:44.952Z,8.40
2022-10-21T01:38:22.935Z,8.40
2022-10-21T01:40:57.306Z,8.60
2022-10-21T01:43:35.284Z,8.50
2022-10-21T01:46:07.599Z,8.50
2022-10-21T01:48:43.621Z,8.40
2022-10-21T01:51:13.551Z,8.50
2022-10-21T01:53:44.994Z,8.50
2022-10-21T01:56:14.104Z,8.50
2022-10-21T01:58:44.585Z,8.50
2022-10-21T02:01:14.587Z,8.40
2022-10-21T02:03:47.696Z,8.50
2022-10-21T02:06:15.836Z,8.40
2022-10-21T02:08:44.302Z,8.50
2022-10-21T02:11:13.837Z,8.50
2022-10-21T02:13:46.629Z,8.50
2022-10-21T02:16:19.211Z,8.50
2022-10-21T02:18:48.753Z,8.50
2022-10-21T02:21:20.094Z,8.50
2022-10-21T02:23:54.473Z,8.40
2022-10-21T02:26:23.013Z,8.50
2022-10-21T02:28:51.839Z,8.50
2022-10-21T02:31:31.076Z,8.50
2022-10-21T02:34:08.993Z,8.50
2022-10-21T02:36:43.343Z,8.40
2022-10-21T02:39:19.887Z,8.50
2022-10-21T02:41:50.295Z,8.50
2022-10-21T02:44:18.605Z,8.50
2022-10-21T02:46:49.169Z,8.50
2022-10-21T02:49:18.522Z,8.50
2022-10-21T02:51:47.337Z,8.50
2022-10-21T02:54:15.381Z,8.50
2022-10-21T02:56:43.429Z,8.50
2022-10-21T02:59:11.461Z,8.50
2022-10-21T03:01:39.373Z,8.50
2022-10-21T03:04:07.446Z,8.50
2022-10-21T03:06:36.898Z,8.50
2022-10-21T03:09:05.497Z,8.60
2022-10-21T03:11:33.701Z,8.50
2022-10-21T03:14:01.829Z,8.50
2022-10-21T03:16:30.106Z,8.50
2022-10-21T03:18:58.278Z,8.50
2022-10-21T03:21:26.435Z,8.60
2022-10-21T03:23:55.902Z,8.50
2022-10-21T03:26:23.963Z,8.50
2022-10-21T03:28:51.998Z,8.50
2022-10-21T03:31:20.115Z,8.50
2022-10-21T03:33:48.109Z,8.50
2022-10-21T03:36:16.110Z,8.50
2022-10-21T03:38:44.259Z,8.50
2022-10-21T03:41:13.509Z,8.50
2022-10-21T03:43:41.427Z,8.50
2022-10-21T03:46:09.588Z,8.50
2022-10-21T03:48:37.715Z,8.50
2022-10-21T03:51:05.879Z,8.50
2022-10-21T03:53:49.081Z,8.40
2022-10-21T03:56:18.414Z,8.40
2022-10-21T03:58:46.501Z,8.40
2022-10-21T04:01:15.374Z,8.50
2022-10-21T04:03:43.462Z,8.50
2022-10-21T04:06:11.501Z,8.50
2022-10-21T04:08:39.357Z,8.50
2022-10-21T04:11:07.333Z,8.50
2022-10-21T04:13:36.791Z,8.40
2022-10-21T04:16:08.864Z,8.40
2022-10-21T04:18:37.062Z,8.40
2022-10-21T04:21:05.370Z,8.40
2022-10-21T04:23:33.764Z,8.40
2022-10-21T04:26:02.045Z,8.40
2022-10-21T04:28:30.913Z,8.40
2022-10-21T04:31:00.494Z,8.40
2022-10-21T04:33:28.593Z,8.40
2022-10-21T04:35:56.799Z,8.40
2022-10-21T04:38:25.185Z,8.40
2022-10-21T04:40:57.428Z,8.40
2022-10-21T04:43:26.200Z,8.40
2022-10-21T04:45:54.615Z,8.40
2022-10-21T04:48:24.810Z,8.40
2022-10-21T04:50:54.106Z,8.40
2022-10-21T04:53:22.580Z,8.40
2022-10-21T04:55:53.253Z,8.40
2022-10-21T04:58:22.490Z,8.40
2022-10-21T05:00:51.028Z,8.40
2022-10-21T05:03:19.745Z,8.40
2022-10-21T05:05:51.777Z,8.40
2022-10-21T05:08:20.446Z,8.40
2022-10-21T05:10:48.400Z,8.40
2022-10-21T05:13:16.305Z,8.40
2022-10-21T05:15:44.307Z,8.50
2022-10-21T05:18:12.368Z,8.50
2022-10-21T05:20:40.367Z,8.50
2022-10-21T05:23:10.147Z,8.50
2022-10-21T05:25:38.718Z,8.50
2022-10-21T05:28:06.772Z,8.60
2022-10-21T05:30:35.432Z,8.60
2022-10-21T05:33:03.701Z,8.60
2022-10-21T05:35:31.822Z,8.60
2022-10-21T05:37:59.947Z,8.60
2022-10-21T05:40:29.330Z,8.70
2022-10-21T05:42:57.311Z,8.60
2022-10-21T05:45:25.334Z,8.70
2022-10-21T05:47:53.280Z,8.70
2022-10-21T05:50:21.441Z,8.70
2022-10-21T05:52:49.832Z,8.70
2022-10-21T05:55:18.086Z,8.70
2022-10-21T05:57:47.522Z,8.80
2022-10-21T06:00:16.038Z,8.80
2022-10-21T06:02:44.606Z,8.80
2022-10-21T06:05:12.631Z,8.80
2022-10-21T06:07:40.921Z,8.80
2022-10-21T06:10:12.204Z,8.80
2022-10-21T06:12:40.728Z,8.90
2022-10-21T06:15:11.473Z,8.90
2022-10-21T06:17:39.824Z,8.90
2022-10-21T06:20:08.784Z,9.00
2022-10-21T06:22:36.663Z,9.00
2022-10-21T06:25:05.242Z,9.00
2022-10-21T06:27:33.295Z,9.00
2022-10-21T06:30:01.173Z,9.00
2022-10-21T06:32:30.536Z,9.00
2022-10-21T06:34:58.750Z,9.00
2022-10-21T06:37:26.650Z,9.10
2022-10-21T06:39:54.805Z,9.20
2022-10-21T06:42:22.913Z,9.20
2022-10-21T06:44:51.004Z,9.20
2022-10-21T06:47:19.101Z,9.20
2022-10-21T06:49:48.435Z,9.20
2022-10-21T06:52:16.456Z,9.20
2022-10-21T06:54:44.393Z,9.20
2022-10-21T06:57:12.311Z,9.20
2022-10-21T06:59:40.189Z,9.20
2022-10-21T07:02:08.391Z,9.30
2022-10-21T07:04:36.464Z,9.30
2022-10-21T07:07:05.886Z,9.30
2022-10-21T07:09:33.964Z,9.30
2022-10-21T07:12:02.766Z,9.40
2022-10-21T07:14:30.799Z,9.40
2022-10-21T07:16:58.826Z,9.40
2022-10-21T07:19:26.839Z,9.50
2022-10-21T07:21:55.015Z,9.50
2022-10-21T07:24:24.379Z,9.50
2022-10-21T07:26:52.584Z,9.60
2022-10-21T07:29:20.553Z,9.70
2022-10-21T07:31:48.990Z,9.70
2022-10-21T07:34:17.350Z,9.70
2022-10-21T07:36:48.435Z,9.80
2022-10-21T07:39:18.878Z,9.80
2022-10-21T07:41:50.894Z,9.90
2022-10-21T07:44:19.893Z,10.00
2022-10-21T07:46:49.203Z,10.10
2022-10-21T07:49:19.140Z,10.10
2022-10-21T07:51:50.150Z,10.20
2022-10-21T07:54:18.646Z,10.30
2022-10-21T07:56:49.835Z,10.30
2022-10-21T07:59:19.387Z,10.40
2022-10-21T08:04:19.380Z,10.50
2022-10-21T08:06:48.879Z,10.60
2022-10-21T08:09:18.069Z,10.70
2022-10-21T08:11:46.297Z,10.80
2022-10-21T08:14:15.816Z,10.80
2022-10-21T08:16:43.910Z,10.90
2022-10-21T08:19:19.362Z,11.10
2022-10-21T08:21:47.865Z,11.20
2022-10-21T08:24:15.932Z,11.30
2022-10-21T08:26:43.838Z,11.50
2022-10-21T08:29:11.762Z,11.70
2022-10-21T08:31:41.248Z,11.80
2022-10-21T08:34:09.309Z,12.00
2022-10-21T08:36:39.337Z,12.20
2022-10-21T08:39:10.335Z,12.50
2022-10-21T08:41:58.525Z,12.80
2022-10-21T08:44:34.120Z,13.10
2022-10-21T08:53:49.911Z,13.30
2022-10-21T08:56:20.022Z,13.70
2022-10-21T08:58:53.601Z,13.80
2022-10-21T09:01:30.132Z,14.20
2022-10-21T09:04:03.689Z,14.40
2022-10-21T09:06:35.436Z,14.40
2022-10-21T09:09:11.866Z,14.30
2022-10-21T09:11:58.952Z,14.00
2022-10-21T09:14:47.345Z,13.90
2022-10-21T09:17:26.697Z,13.80
2022-10-21T09:20:02.381Z,13.70
2022-10-21T09:22:50.361Z,13.50
2022-10-21T09:25:23.427Z,13.50
2022-10-21T09:27:56.406Z,13.50
2022-10-21T09:30:26.283Z,13.40
2022-10-21T09:35:48.259Z,13.50
2022-10-21T09:38:21.886Z,13.50
2022-10-21T09:40:59.192Z,13.50
2022-10-21T09:43:28.396Z,13.60
2022-10-21T09:45:57.075Z,13.70
2022-10-21T09:48:36.992Z,13.90
2022-10-21T09:51:15.203Z,14.20
2022-10-21T09:53:53.972Z,14.30
2022-10-21T09:56:26.897Z,14.30
2022-10-21T09:59:08.248Z,14.40
2022-10-21T10:01:58.051Z,14.40
2022-10-21T10:04:42.798Z,14.50
2022-10-21T10:07:39.343Z,14.50
2022-10-21T10:10:30.627Z,14.50
2022-10-21T10:13:03.693Z,14.50
2022-10-21T10:15:38.245Z,14.50
2022-10-21T10:18:25.185Z,14.50
2022-10-21T10:21:23.771Z,14.40
2022-10-21T10:24:05.887Z,14.40
2022-10-21T10:26:45.271Z,14.30
2022-10-21T10:29:43.736Z,14.40
2022-10-21T10:32:21.390Z,14.40
2022-10-21T10:35:07.034Z,14.50
2022-10-21T10:40:43.584Z,14.70
2022-10-21T10:43:20.645Z,14.80
2022-10-21T10:45:59.268Z,14.80
2022-10-21T10:48:37.834Z,14.90
2022-10-21T10:51:27.797Z,15.00
2022-10-21T10:54:20.786Z,15.10
2022-10-21T10:57:00.285Z,15.20
2022-10-21T10:59:43.755Z,15.20
2022-10-21T11:02:24.608Z,15.20
2022-10-21T11:05:09.887Z,15.20
2022-10-21T11:07:44.381Z,15.10
2022-10-21T11:10:30.062Z,15.10
2022-10-21T11:12:58.456Z,15.10
2022-10-21T11:15:36.951Z,15.10
2022-10-21T11:18:26.082Z,15.10
2022-10-21T11:21:06.420Z,15.30
2022-10-21T11:24:53.230Z,15.40
2022-10-21T11:27:42.452Z,15.50
2022-10-21T11:33:39.667Z,15.70
2022-10-21T11:36:16.389Z,15.70
2022-10-21T11:38:56.400Z,15.80
2022-10-21T11:41:33.292Z,15.80
2022-10-21T11:44:16.395Z,15.80
2022-10-21T11:46:56.216Z,15.70
2022-10-21T11:49:42.756Z,15.70
2022-10-21T11:52:21.745Z,15.80
2022-10-21T11:55:24.742Z,15.70
2022-10-21T11:58:01.468Z,15.70
2022-10-21T12:00:34.707Z,15.70
2022-10-21T12:03:46.868Z,15.60
2022-10-21T12:06:34.874Z,15.50
2022-10-21T12:09:14.373Z,15.40
2022-10-21T12:11:47.482Z,15.40
2022-10-21T12:14:31.032Z,15.30
2022-10-21T12:17:02.899Z,15.30
2022-10-21T12:19:31.005Z,15.20
2022-10-21T12:22:00.977Z,15.10
2022-10-21T12:24:42.358Z,15.10
2022-10-21T12:27:18.656Z,15.20
2022-10-21T12:29:57.295Z,15.10
2022-10-21T12:32:30.574Z,15.20
2022-10-21T12:34:58.944Z,15.10
2022-10-21T12:38:05.610Z,15.10
2022-10-21T12:40:40.990Z,15.00
2022-10-21T12:43:22.533Z,15.00
2022-10-21T12:46:04.513Z,15.10
2022-10-21T12:48:35.433Z,15.20
2022-10-21T12:51:06.397Z,15.00
2022-10-21T12:53:42.703Z,15.00
2022-10-21T12:56:12.255Z,15.00
2022-10-21T12:58:45.280Z,14.90
2022-10-21T13:01:40.042Z,14.90
2022-10-21T13:04:48.170Z,14.90
2022-10-21T13:07:39.824Z,14.90
2022-10-21T13:10:32.875Z,14.90
2022-10-21T13:13:31.978Z,14.80
2022-10-21T13:16:02.374Z,14.80
2022-10-21T13:18:53.945Z,14.80
2022-10-21T13:21:40.554Z,14.80
2022-10-21T13:24:36.946Z,14.80
2022-10-21T13:27:26.694Z,14.90
2022-10-21T13:30:09.082Z,14.80
2022-10-21T13:32:39.096Z,14.90
2022-10-21T13:35:33.255Z,14.80
2022-10-21T13:38:05.736Z,14.90
2022-10-21T13:40:46.173Z,15.00
2022-10-21T13:43:19.908Z,15.00
2022-10-21T13:45:51.232Z,15.00
2022-10-21T13:48:22.867Z,15.00
2022-10-21T13:50:53.193Z,15.00
2022-10-21T13:53:28.930Z,14.90
2022-10-21T13:55:59.757Z,15.00
2022-10-21T13:58:33.246Z,14.90
2022-10-21T14:01:09.472Z,14.80
2022-10-21T14:03:37.719Z,14.90
2022-10-21T14:06:09.627Z,14.90
2022-10-21T14:08:42.116Z,14.70
2022-10-21T14:11:17.478Z,14.70
2022-10-21T14:13:48.016Z,14.70
2022-10-21T14:16:22.428Z,14.60
2022-10-21T14:18:51.093Z,14.70
2022-10-21T14:21:22.566Z,14.50
2022-10-21T14:23:51.329Z,14.50
2022-10-21T14:26:19.733Z,14.50
2022-10-21T14:28:50.362Z,14.40
2022-10-21T14:31:20.102Z,14.40
2022-10-21T14:33:49.819Z,14.40
2022-10-21T14:36:20.647Z,14.40
2022-10-21T14:39:00.711Z,14.40
2022-10-21T14:41:33.846Z,14.40
2022-10-21T14:44:14.141Z,14.40
2022-10-21T14:46:44.759Z,14.40
2022-10-21T14:49:23.422Z,14.30
2022-10-21T14:51:57.406Z,14.30
2022-10-21T14:54:31.008Z,14.30
2022-10-21T14:57:01.257Z,14.30
2022-10-21T14:59:38.480Z,14.30
2022-10-21T15:02:14.279Z,14.30
2022-10-21T15:04:49.654Z,14.20
2022-10-21T15:07:29.610Z,14.20
2022-10-21T15:10:19.386Z,14.20
2022-10-21T15:12:50.476Z,14.20
2022-10-21T15:15:44.492Z,14.20
2022-10-21T15:18:17.761Z,14.20
2022-10-21T15:20:54.580Z,14.10
2022-10-21T15:23:28.160Z,14.10
2022-10-21T15:26:00.495Z,14.00
2022-10-21T15:28:31.853Z,14.00
2022-10-21T15:31:02.538Z,13.90
2022-10-21T15:33:30.770Z,13.90
2022-10-21T15:36:08.638Z,13.90
2022-10-21T15:38:37.022Z,13.80
2022-10-21T15:41:05.228Z,13.70
2022-10-21T15:43:33.486Z,13.70
2022-10-21T15:46:02.892Z,13.70
2022-10-21T15:48:30.773Z,13.60
2022-10-21T15:50:58.728Z,13.60
2022-10-21T15:53:26.859Z,13.50
2022-10-21T15:55:55.626Z,13.50
2022-10-21T15:58:23.578Z,13.50
2022-10-21T16:00:51.796Z,13.40
2022-10-21T16:03:21.660Z,13.40
2022-10-21T16:05:49.652Z,13.40
2022-10-21T16:08:17.723Z,13.40
2022-10-21T16:10:47.865Z,13.40
2022-10-21T16:13:16.550Z,13.40
2022-10-21T16:15:44.602Z,13.30
2022-10-21T16:18:14.867Z,13.40
2022-10-21T16:20:44.555Z,13.40
2022-10-21T16:23:12.670Z,13.40
2022-10-21T16:25:40.676Z,13.40
2022-10-21T16:28:08.675Z,13.40
2022-10-21T16:30:39.227Z,13.40
2022-10-21T16:33:07.252Z,13.40
2022-10-21T16:35:35.260Z,13.40
2022-10-21T16:38:04.508Z,13.40
2022-10-21T16:40:35.124Z,13.40
2022-10-21T16:43:03.258Z,13.40
2022-10-21T16:45:32.873Z,13.40
2022-10-21T16:48:04.384Z,13.40
2022-10-21T16:50:39.497Z,13.40
2022-10-21T16:53:13.129Z,13.40
2022-10-21T16:55:41.036Z,13.40
2022-10-21T16:58:09.066Z,13.40
2022-10-21T17:00:37.593Z,13.40
2022-10-21T17:03:05.721Z,13.40
2022-10-21T17:08:02.828Z,13.40
2022-10-21T17:10:32.199Z,13.40
2022-10-21T17:13:01.519Z,13.40
2022-10-21T17:15:29.937Z,13.50
2022-10-21T17:17:59.235Z,13.50
2022-10-21T17:20:30.400Z,13.50
2022-10-21T17:22:58.885Z,13.50
2022-10-21T17:25:27.348Z,13.50
2022-10-21T17:27:56.785Z,13.50
2022-10-21T17:30:25.204Z,13.50
2022-10-21T17:32:53.094Z,13.50
2022-10-21T17:35:21.245Z,13.50
2022-10-21T17:37:50.593Z,13.50
2022-10-21T17:40:20.654Z,13.50
2022-10-21T17:42:49.062Z,13.60
2022-10-21T17:45:19.670Z,13.60
2022-10-21T17:47:48.250Z,13.50
2022-10-21T17:50:18.601Z,13.60
2022-10-21T17:52:46.570Z,13.60
2022-10-21T17:55:14.481Z,13.60
2022-10-21T17:57:42.367Z,13.50
2022-10-21T18:00:10.986Z,13.50
2022-10-21T18:02:40.752Z,13.50
2022-10-21T18:05:10.454Z,13.50
2022-10-21T18:07:39.018Z,13.60
2022-10-21T18:10:08.807Z,13.50
2022-10-21T18:12:37.010Z,13.50
2022-10-21T18:15:09.006Z,13.40
2022-10-21T18:17:40.131Z,13.50
2022-10-21T18:20:13.986Z,13.50
2022-10-21T18:22:42.327Z,13.50
2022-10-21T18:25:11.206Z,13.50
2022-10-21T18:27:40.258Z,13.50
2022-10-21T18:30:09.588Z,13.50
2022-10-21T18:32:37.902Z,13.50
2022-10-21T18:35:07.393Z,13.50
2022-10-21T18:37:36.982Z,13.50
2022-10-21T18:40:06.230Z,13.50
2022-10-21T18:42:34.307Z,13.50
2022-10-21T18:45:02.242Z,13.50
2022-10-21T18:47:30.281Z,13.50
2022-10-21T18:49:59.691Z,13.50
2022-10-21T18:52:27.747Z,13.60
2022-10-21T18:54:59.607Z,13.60
2022-10-21T18:57:27.988Z,13.50
2022-10-21T18:59:56.719Z,13.50
2022-10-21T19:02:25.219Z,13.50
2022-10-21T19:04:54.957Z,13.50
2022-10-21T19:07:27.262Z,13.50
2022-10-21T19:09:57.322Z,13.40
2022-10-21T19:12:25.484Z,13.40
2022-10-21T19:14:53.614Z,13.40
2022-10-21T19:17:24.457Z,13.40
2022-10-21T19:19:52.645Z,13.40
2022-10-21T19:22:25.298Z,13.30
2022-10-21T19:24:54.718Z,13.30
2022-10-21T19:27:24.178Z,13.30
2022-10-21T19:29:52.497Z,13.30
2022-10-21T19:32:20.533Z,13.30
2022-10-21T19:34:48.823Z,13.30
2022-10-21T19:37:16.811Z,13.20
2022-10-21T19:39:45.126Z,13.20
2022-10-21T19:42:13.172Z,13.20
2022-10-21T19:44:42.816Z,13.20
2022-10-21T19:47:10.999Z,13.20
2022-10-21T19:49:39.719Z,13.30
2022-10-21T19:52:07.814Z,13.30
2022-10-21T19:54:35.861Z,13.30
2022-10-21T19:57:04.032Z,13.20
2022-10-21T19:59:34.338Z,13.30
2022-10-21T20:02:03.544Z,13.30
2022-10-21T20:04:33.873Z,13.30
2022-10-21T20:07:03.452Z,13.30
2022-10-21T20:09:33.874Z,13.30
2022-10-21T20:12:04.593Z,13.30
2022-10-21T20:14:35.381Z,13.30
2022-10-21T20:17:04.716Z,13.30
2022-10-21T20:19:33.010Z,13.30
2022-10-21T20:22:01.244Z,13.30
2022-10-21T20:24:29.318Z,13.30
2022-10-21T20:26:59.774Z,13.20
2022-10-21T20:29:30.092Z,13.30
2022-10-21T20:32:00.901Z,13.30
2022-10-21T20:34:33.959Z,13.20
2022-10-21T20:37:04.906Z,13.20
2022-10-21T20:39:32.984Z,13.20
2022-10-21T20:42:02.863Z,13.10
2022-10-21T20:44:30.925Z,13.00
2022-10-21T20:51:05.805Z,12.90
2022-10-21T20:53:34.911Z,12.80
2022-10-21T20:56:03.781Z,12.80
2022-10-21T20:58:35.040Z,12.80
2022-10-21T21:01:08.134Z,12.80
2022-10-21T21:03:38.029Z,12.70
2022-10-21T21:06:08.066Z,12.70
2022-10-21T21:08:37.418Z,12.70
2022-10-21T21:11:06.915Z,12.70
2022-10-21T21:13:35.580Z,12.70
2022-10-21T21:16:06.028Z,12.70
2022-10-21T21:18:34.302Z,12.80
2022-10-21T21:21:04.074Z,12.80
2022-10-21T21:23:34.092Z,12.80
2022-10-21T21:26:06.642Z,12.80
2022-10-21T21:28:36.376Z,12.80
2022-10-21T21:31:05.818Z,12.80
2022-10-21T21:33:34.606Z,12.90
2022-10-21T21:36:03.083Z,12.90
2022-10-21T21:38:31.714Z,12.90
2022-10-21T21:41:03.545Z,12.90
2022-10-21T21:43:33.801Z,12.90
2022-10-21T21:46:02.004Z,12.90
2022-10-21T21:48:31.779Z,12.90
2022-10-21T21:51:03.902Z,13.00
2022-10-21T21:53:32.483Z,12.90
2022-10-21T21:56:03.868Z,13.00
2022-10-21T21:58:32.008Z,13.00
2022-10-21T22:01:09.467Z,13.00
2022-10-21T22:03:37.683Z,13.00
2022-10-21T22:06:06.572Z,13.00
2022-10-21T22:08:35.033Z,13.10
2022-10-21T22:11:08.899Z,13.10
2022-10-21T22:13:37.464Z,13.10
2022-10-21T22:16:07.511Z,13.00
2022-10-21T22:18:35.825Z,13.10
2022-10-21T22:21:06.165Z,13.10
2022-10-21T22:23:34.126Z,13.10
2022-10-21T22:26:02.020Z,13.10
2022-10-21T22:28:31.669Z,13.20
2022-10-21T22:31:01.870Z,13.20
2022-10-21T22:33:30.774Z,13.20
2022-10-21T22:35:58.777Z,13.10
2022-10-21T22:38:26.740Z,13.10
2022-10-21T22:40:54.833Z,13.10
2022-10-21T22:43:23.039Z,13.20
2022-10-21T22:45:55.239Z,13.20
2022-10-21T22:48:29.290Z,13.10
2022-10-21T22:50:57.415Z,13.10
2022-10-21T22:53:25.438Z,13.10
2022-10-21T22:55:53.465Z,13.10
2022-10-21T22:58:23.287Z,13.10
2022-10-21T23:00:52.775Z,13.00
2022-10-21T23:03:21.304Z,13.10
2022-10-21T23:05:49.751Z,13.00
2022-10-21T23:08:18.338Z,13.00
2022-10-21T23:10:48.891Z,13.00
2022-10-21T23:13:16.999Z,13.00
2022-10-21T23:15:45.809Z,13.00
2022-10-21T23:18:15.929Z,13.00
2022-10-21T23:20:44.576Z,13.00
2022-10-21T23:23:13.654Z,13.00
2022-10-21T23:25:41.746Z,13.00
2022-10-21T23:28:10.337Z,12.90
2022-10-21T23:30:39.008Z,12.90
2022-10-21T23:33:07.088Z,12.80
2022-10-21T23:35:36.587Z,12.70
2022-10-21T23:38:04.555Z,12.70
2022-10-21T23:40:32.620Z,12.70
2022-10-21T23:43:00.655Z,12.60
2022-10-21T23:45:28.691Z,12.60
2022-10-21T23:47:56.639Z,12.50
2022-10-21T23:50:24.607Z,12.50
2022-10-21T23:52:54.095Z,12.50
2022-10-21T23:55:22.236Z,12.40
2022-10-21T23:57:50.246Z,12.40
